Mineral, Kansas
Current Conditions -  °F | °C
As of 8:15 AM on Wednesday 26 Nov 2014 (Local Time) from KPTS Reporting Station
Scattered Clouds Scattered Clouds  
Wind Chill: 38°   Ceiling: Unl
Heat Index: 38°   Visibility: 10mi
Dew Point: 32°   Wind: 0mph
Humidity: 78%   Direction: NA
Pressure: 30.01"   Gusts: NA
Location:  37.2845°N, 94.9255°W
Report Text: KPTS 261415Z AUTO 00000KT 10SM SCT085 04/00 A3001 RMK AO2 T00350000
Loading
Personal Weather Stations






























Interactive Weather Map New forecast layout! Learn more

10-Day Weather Forecast

Advertisements
Track Severe Weather on mobile